createdAt,value
2018-06-21T00:03:54.913Z,18.70
2018-06-21T00:07:58.773Z,18.70
2018-06-21T00:12:02.544Z,18.80
2018-06-21T00:16:06.247Z,18.70
2018-06-21T00:20:09.777Z,18.60
2018-06-21T00:24:13.941Z,18.40
2018-06-21T00:28:18.119Z,18.40
2018-06-21T00:32:22.346Z,18.40
2018-06-21T00:36:25.968Z,18.40
2018-06-21T00:40:29.553Z,18.40
2018-06-21T00:44:33.066Z,18.20
2018-06-21T00:48:39.035Z,18.20
2018-06-21T00:52:43.053Z,18.20
2018-06-21T00:56:47.286Z,18.10
2018-06-21T01:00:51.165Z,18.00
2018-06-21T01:04:54.792Z,17.90
2018-06-21T01:08:58.443Z,17.80
2018-06-21T01:13:02.127Z,17.80
2018-06-21T01:17:06.433Z,17.80
2018-06-21T01:21:09.975Z,17.80
2018-06-21T01:25:13.944Z,17.80
2018-06-21T01:29:18.406Z,17.80
2018-06-21T01:33:22.221Z,17.70
2018-06-21T01:37:25.778Z,17.60
2018-06-21T01:41:29.292Z,17.50
2018-06-21T01:45:33.031Z,17.60
2018-06-21T01:49:36.634Z,17.50
2018-06-21T01:53:40.284Z,17.50
2018-06-21T01:57:44.248Z,17.50
2018-06-21T02:01:48.187Z,17.60
2018-06-21T02:05:51.712Z,17.60
2018-06-21T02:09:55.273Z,17.80
2018-06-21T02:13:59.057Z,17.90
2018-06-21T02:18:02.821Z,18.00
2018-06-21T02:22:06.368Z,18.00
2018-06-21T02:26:10.007Z,18.00
2018-06-21T02:30:14.115Z,17.90
2018-06-21T02:34:18.325Z,17.90
2018-06-21T02:38:22.073Z,17.90
2018-06-21T02:42:25.719Z,17.90
2018-06-21T02:46:29.293Z,17.90
2018-06-21T02:50:32.952Z,17.70
2018-06-21T02:54:36.952Z,17.60
2018-06-21T02:58:40.509Z,17.70
2018-06-21T03:02:44.501Z,17.70
2018-06-21T03:06:48.383Z,17.70
2018-06-21T03:10:52.048Z,17.50
2018-06-21T03:15:03.180Z,17.40
2018-06-21T03:19:06.703Z,17.50
2018-06-21T03:23:10.218Z,17.50
2018-06-21T03:27:14.507Z,17.50
2018-06-21T03:31:18.499Z,17.50
2018-06-21T03:35:22.011Z,17.50
2018-06-21T03:39:25.541Z,17.60
2018-06-21T03:43:29.075Z,17.60
2018-06-21T03:47:33.198Z,17.60
2018-06-21T03:55:39.915Z,17.20
2018-06-21T03:59:44.379Z,17.00
2018-06-21T04:03:48.403Z,17.10
2018-06-21T04:07:52.225Z,17.50
2018-06-21T04:11:55.869Z,17.60
2018-06-21T04:15:59.427Z,17.70
2018-06-21T04:20:03.148Z,17.80
2018-06-21T04:24:07.059Z,17.60
2018-06-21T04:28:11.756Z,17.50
2018-06-21T04:32:16.083Z,17.80
2018-06-21T04:36:20.307Z,17.80
2018-06-21T04:40:24.180Z,17.70
2018-06-21T04:44:28.241Z,17.80
2018-06-21T04:48:32.080Z,17.90
2018-06-21T04:52:36.015Z,18.00
2018-06-21T04:56:39.554Z,17.90
2018-06-21T05:00:44.638Z,18.00
2018-06-21T05:04:48.956Z,18.20
2018-06-21T05:08:53.365Z,18.20
2018-06-21T05:12:56.893Z,18.30
2018-06-21T05:17:00.851Z,18.40
2018-06-21T05:21:04.702Z,18.40
2018-06-21T05:25:08.380Z,18.50
2018-06-21T05:29:12.136Z,18.60
2018-06-21T05:33:16.009Z,18.70
2018-06-21T05:37:19.856Z,18.90
2018-06-21T05:41:31.064Z,19.10
2018-06-21T05:45:35.311Z,19.10
2018-06-21T05:49:38.947Z,19.30
2018-06-21T05:53:44.981Z,19.70
2018-06-21T05:57:49.574Z,20.40
2018-06-21T06:01:53.216Z,20.90
2018-06-21T06:05:56.893Z,21.40
2018-06-21T06:10:00.475Z,21.40
2018-06-21T06:14:04.244Z,21.60
2018-06-21T06:18:08.014Z,21.60
2018-06-21T06:22:11.575Z,21.80
2018-06-21T06:26:15.586Z,22.00
2018-06-21T06:30:19.606Z,22.00
2018-06-21T06:34:23.167Z,22.20
2018-06-21T06:38:26.745Z,22.50
2018-06-21T06:42:30.521Z,23.50
2018-06-21T06:46:34.239Z,24.40
2018-06-21T06:50:37.811Z,24.60
2018-06-21T06:54:41.536Z,25.20
2018-06-21T06:58:45.340Z,26.90
2018-06-21T07:02:49.217Z,27.30
2018-06-21T07:06:53.040Z,27.60
2018-06-21T07:10:56.840Z,27.40
2018-06-21T07:15:00.377Z,25.60
2018-06-21T07:19:04.953Z,24.70
2018-06-21T07:23:08.709Z,24.20
2018-06-21T07:27:13.217Z,23.90
2018-06-21T07:31:16.909Z,23.90
2018-06-21T07:35:20.614Z,23.50
2018-06-21T07:39:24.415Z,23.30
2018-06-21T07:43:28.115Z,23.40
2018-06-21T07:47:31.837Z,23.10
2018-06-21T07:51:35.588Z,22.70
2018-06-21T07:55:39.155Z,22.30
2018-06-21T07:59:43.235Z,21.80
2018-06-21T08:03:47.178Z,21.70
2018-06-21T08:07:50.871Z,21.70
2018-06-21T08:11:54.420Z,22.30
2018-06-21T08:15:58.186Z,22.20
2018-06-21T08:20:01.846Z,21.90
2018-06-21T08:24:07.040Z,21.40
2018-06-21T08:28:10.588Z,21.20
2018-06-21T08:32:14.400Z,21.00
2018-06-21T08:36:18.106Z,20.80
2018-06-21T08:40:21.696Z,20.70
2018-06-21T08:44:25.338Z,20.60
2018-06-21T08:48:28.868Z,20.50
2018-06-21T08:52:34.649Z,20.30
2018-06-21T08:56:38.243Z,20.10
2018-06-21T09:00:41.885Z,19.90
2018-06-21T09:04:45.908Z,19.80
2018-06-21T09:08:49.764Z,19.70
2018-06-21T09:12:53.391Z,19.70
2018-06-21T09:16:56.875Z,19.60
2018-06-21T09:21:00.877Z,19.40
2018-06-21T09:25:04.459Z,19.40
2018-06-21T09:29:08.054Z,19.60
2018-06-21T09:33:11.620Z,19.90
2018-06-21T09:37:15.534Z,20.00
2018-06-21T09:41:24.663Z,20.00
2018-06-21T09:47:39.519Z,20.00
2018-06-21T09:51:43.511Z,20.20
2018-06-21T09:55:48.110Z,20.50
2018-06-21T09:59:51.614Z,20.60
2018-06-21T10:03:55.170Z,21.00
2018-06-21T10:07:58.698Z,20.90
2018-06-21T10:12:02.447Z,20.80
2018-06-21T10:16:06.066Z,20.80
2018-06-21T10:20:10.167Z,20.70
2018-06-21T10:24:14.068Z,20.70
2018-06-21T10:28:19.234Z,20.60
2018-06-21T10:32:22.958Z,20.60
2018-06-21T10:36:27.233Z,20.60
2018-06-21T10:40:30.806Z,20.50
2018-06-21T10:44:34.522Z,20.40
2018-06-21T10:48:38.221Z,20.60
2018-06-21T10:52:42.231Z,20.50
2018-06-21T10:56:46.231Z,20.60
2018-06-21T11:00:49.926Z,21.20
2018-06-21T11:04:53.473Z,21.30
2018-06-21T11:09:00.434Z,21.60
2018-06-21T11:13:04.235Z,21.50
2018-06-21T11:17:07.896Z,21.50
2018-06-21T11:21:11.460Z,21.50
2018-06-21T11:25:23.102Z,21.70
2018-06-21T11:29:26.631Z,21.70
2018-06-21T11:33:32.375Z,21.80
2018-06-21T11:37:35.918Z,21.60
2018-06-21T11:41:39.509Z,21.20
2018-06-21T11:45:43.229Z,20.60
2018-06-21T11:49:51.600Z,20.60
2018-06-21T11:53:55.176Z,20.90
2018-06-21T11:58:03.110Z,20.90
2018-06-21T12:02:12.458Z,21.10
2018-06-21T12:06:16.200Z,20.70
2018-06-21T12:10:19.954Z,20.80
2018-06-21T12:14:24.386Z,20.70
2018-06-21T12:22:31.209Z,20.90
2018-06-21T12:26:34.871Z,21.10
2018-06-21T12:30:38.496Z,20.60
2018-06-21T12:34:42.068Z,20.70
2018-06-21T12:38:49.307Z,21.00
2018-06-21T12:42:52.825Z,21.20
2018-06-21T12:46:56.361Z,21.10
2018-06-21T12:50:59.887Z,21.40
2018-06-21T12:55:03.676Z,21.10
2018-06-21T12:59:07.275Z,20.70
2018-06-21T13:03:10.829Z,20.40
2018-06-21T13:07:14.514Z,20.30
2018-06-21T13:11:37.040Z,20.50
2018-06-21T13:15:40.738Z,20.50
2018-06-21T13:19:44.803Z,20.20
2018-06-21T13:23:48.595Z,20.40
2018-06-21T13:27:57.776Z,20.40
2018-06-21T13:32:02.165Z,20.40
2018-06-21T13:36:05.844Z,20.60
2018-06-21T13:40:09.420Z,20.70
2018-06-21T13:44:13.107Z,20.30
2018-06-21T13:48:16.884Z,19.90
2018-06-21T13:56:23.923Z,19.70
2018-06-21T14:00:27.464Z,19.80
2018-06-21T14:04:31.015Z,19.80
2018-06-21T14:08:35.030Z,20.00
2018-06-21T14:12:38.326Z,20.00
2018-06-21T14:16:41.930Z,20.10
2018-06-21T14:20:45.925Z,20.30
2018-06-21T14:24:49.884Z,20.20
2018-06-21T14:28:55.192Z,20.10
2018-06-21T14:32:58.763Z,20.00
2018-06-21T14:37:04.769Z,20.10
2018-06-21T14:41:08.348Z,19.90
2018-06-21T14:45:11.947Z,20.00
2018-06-21T14:49:16.601Z,20.00
2018-06-21T14:53:21.152Z,19.90
2018-06-21T14:57:24.723Z,19.80
2018-06-21T15:01:33.002Z,19.80
2018-06-21T15:05:36.676Z,20.00
2018-06-21T15:09:47.256Z,20.00
2018-06-21T15:13:52.529Z,20.00
2018-06-21T15:17:56.114Z,20.00
2018-06-21T15:22:01.947Z,19.80
2018-06-21T15:26:05.695Z,19.60
2018-06-21T15:30:15.926Z,19.60
2018-06-21T15:34:21.995Z,19.60
2018-06-21T15:38:26.647Z,19.70
2018-06-21T15:42:30.234Z,19.70
2018-06-21T15:46:33.898Z,19.80
2018-06-21T15:50:38.752Z,19.70
2018-06-21T15:54:42.342Z,19.70
2018-06-21T15:58:46.156Z,19.60
2018-06-21T16:02:50.232Z,19.60
2018-06-21T16:06:54.202Z,19.60
2018-06-21T16:10:58.642Z,19.40
2018-06-21T16:15:07.592Z,19.30
2018-06-21T16:19:11.366Z,19.20
2018-06-21T16:23:15.410Z,19.10
2018-06-21T16:27:25.656Z,19.20
2018-06-21T16:31:29.317Z,19.30
2018-06-21T16:35:33.619Z,19.10
2018-06-21T16:39:38.680Z,18.90
2018-06-21T16:43:42.759Z,19.00
2018-06-21T16:47:47.059Z,19.00
2018-06-21T16:51:51.536Z,18.90
2018-06-21T16:56:05.379Z,18.80
2018-06-21T17:00:16.107Z,18.50
2018-06-21T17:04:35.542Z,18.60
2018-06-21T17:08:40.623Z,18.60
2018-06-21T17:12:45.496Z,18.60
2018-06-21T17:16:53.074Z,18.30
2018-06-21T17:21:03.535Z,18.30
2018-06-21T17:25:08.423Z,18.10
2018-06-21T17:29:14.742Z,18.30
2018-06-21T17:33:18.598Z,18.20
2018-06-21T17:37:22.479Z,18.40
2018-06-21T17:41:36.625Z,18.40
2018-06-21T17:45:46.491Z,18.10
2018-06-21T17:49:50.284Z,18.30
2018-06-21T17:53:53.807Z,18.20
2018-06-21T17:57:59.594Z,18.00
2018-06-21T18:02:14.475Z,18.10
2018-06-21T18:06:18.188Z,18.00
2018-06-21T18:10:22.214Z,17.70
2018-06-21T18:14:25.927Z,17.70
2018-06-21T18:18:29.544Z,17.70
2018-06-21T18:22:33.263Z,17.80
2018-06-21T18:26:36.857Z,17.70
2018-06-21T18:30:42.243Z,17.60
2018-06-21T18:34:46.502Z,17.70
2018-06-21T18:38:50.935Z,17.60
2018-06-21T18:42:54.642Z,17.70
2018-06-21T18:46:58.349Z,17.50
2018-06-21T18:51:05.810Z,17.30
2018-06-21T18:55:09.515Z,17.40
2018-06-21T18:59:14.540Z,17.50
2018-06-21T19:03:18.866Z,17.10
2018-06-21T19:07:28.038Z,17.10
2018-06-21T19:15:46.302Z,17.20
2018-06-21T19:19:52.316Z,17.10
2018-06-21T19:24:01.358Z,17.30
2018-06-21T19:28:07.594Z,17.00
2018-06-21T19:32:11.237Z,16.70
2018-06-21T19:36:15.334Z,16.40
2018-06-21T19:40:19.119Z,16.50
2018-06-21T19:44:22.983Z,16.60
2018-06-21T19:48:27.792Z,16.50
2018-06-21T19:52:33.368Z,16.50
2018-06-21T19:56:36.923Z,16.50
2018-06-21T20:00:44.020Z,16.40
2018-06-21T20:04:50.431Z,16.30
2018-06-21T20:08:54.656Z,16.00
2018-06-21T20:13:02.443Z,15.90
2018-06-21T20:17:06.709Z,15.80
2018-06-21T20:21:13.786Z,15.90
2018-06-21T20:25:21.519Z,15.90
2018-06-21T20:29:25.936Z,16.20
2018-06-21T20:33:31.770Z,16.20
2018-06-21T20:37:35.861Z,15.90
2018-06-21T20:41:39.997Z,15.80
2018-06-21T20:45:50.970Z,15.60
2018-06-21T20:49:54.786Z,15.30
2018-06-21T20:54:02.695Z,15.20
2018-06-21T20:58:06.369Z,15.00
2018-06-21T21:06:13.207Z,15.20
2018-06-21T21:10:18.188Z,15.10
2018-06-21T21:14:22.354Z,15.30
2018-06-21T21:18:27.993Z,15.50
2018-06-21T21:22:31.594Z,15.40
2018-06-21T21:26:37.386Z,15.50
2018-06-21T21:30:46.266Z,15.90
2018-06-21T21:34:49.944Z,15.70
2018-06-21T21:38:53.674Z,15.70
2018-06-21T21:42:57.177Z,15.90
2018-06-21T21:47:02.776Z,15.70
2018-06-21T21:51:06.498Z,15.80
2018-06-21T21:55:10.844Z,15.70
2018-06-21T21:59:15.096Z,15.80
2018-06-21T22:03:18.992Z,15.80
2018-06-21T22:07:22.583Z,15.50
2018-06-21T22:11:44.768Z,15.50
2018-06-21T22:15:49.128Z,15.40
2018-06-21T22:19:52.879Z,15.70
2018-06-21T22:23:56.530Z,15.30
2018-06-21T22:28:06.515Z,15.20
2018-06-21T22:32:10.036Z,15.10
2018-06-21T22:36:14.904Z,15.00
2018-06-21T22:40:18.932Z,14.70
2018-06-21T22:44:22.614Z,14.50
2018-06-21T22:48:28.226Z,14.40
2018-06-21T22:52:32.187Z,14.20
2018-06-21T22:56:36.359Z,14.10
2018-06-21T23:00:40.286Z,13.90
2018-06-21T23:04:44.098Z,13.90
2018-06-21T23:08:48.060Z,14.10
2018-06-21T23:12:51.739Z,13.70
2018-06-21T23:16:56.492Z,13.60
2018-06-21T23:21:00.000Z,13.60
2018-06-21T23:25:04.573Z,13.20
2018-06-21T23:29:09.446Z,13.30
2018-06-21T23:33:13.370Z,13.50
2018-06-21T23:37:17.268Z,13.30
2018-06-21T23:41:21.111Z,13.40
2018-06-21T23:45:24.644Z,13.30
2018-06-21T23:49:33.784Z,13.30
2018-06-21T23:53:37.310Z,13.60
2018-06-21T23:57:40.837Z,13.30
